Time;durP1;ratioP1;P1;durP2;ratioP2;P2;SDS_P1;SDS_P2;PMS_P1;PMS_P2;Temp;Humidity;BMP_temperature;BMP_pressure;BME280_temperature;BME280_humidity;BME280_pressure;Samples;Min_cycle;Max_cycle;Signal;HPM_P1;HPM_P2
2022/12/17 13:08:03;;;;;;;41.57;25.80;;;2.00;17.90;;;;;;4909116;29;20510;-67
2022/12/17 13:10:32;;;;;;;42.73;25.93;;;1.90;18.20;;;;;;4930745;29;20466;-67
2022/12/17 13:13:06;;;;;;;44.67;27.40;;;1.90;18.40;;;;;;4928421;29;20483;-67
2022/12/17 13:15:37;;;;;;;38.50;24.53;;;1.80;18.40;;;;;;4922931;29;20471;-66
2022/12/17 13:18:18;;;;;;;42.57;25.47;;;1.80;18.60;;;;;;4929110;29;20463;-67
2022/12/17 13:20:58;;;;;;;44.03;26.83;;;1.70;18.90;;;;;;4926041;29;20494;-67
2022/12/17 13:23:31;;;;;;;41.30;24.13;;;1.60;19.10;;;;;;4924963;29;20542;-66
2022/12/17 13:26:22;;;;;;;45.33;25.60;;;1.60;19.10;;;;;;4928190;29;20493;-67
2022/12/17 13:29:02;;;;;;;39.53;24.67;;;1.50;19.40;;;;;;4924749;29;20896;-72
2022/12/17 13:31:39;;;;;;;45.30;25.07;;;1.30;19.60;;;;;;4928172;29;20493;-73
2022/12/17 13:34:14;;;;;;;41.77;24.80;;;1.10;19.90;;;;;;4924699;29;20471;-72
2022/12/17 13:36:49;;;;;;;47.30;27.60;;;0.80;20.00;;;;;;4924886;29;20467;-73
2022/12/17 13:39:30;;;;;;;51.23;28.10;;;0.60;20.80;;;;;;4928193;29;20470;-73
2022/12/17 13:41:57;;;;;;;52.83;29.77;;;0.50;21.30;;;;;;4930127;29;20483;-71
2022/12/17 13:44:26;;;;;;;54.30;30.50;;;0.30;21.60;;;;;;4923960;29;20460;-70
2022/12/17 13:46:54;;;;;;;46.97;26.67;;;0.20;22.20;;;;;;4931745;29;20471;-70
2022/12/17 13:49:24;;;;;;;46.13;26.03;;;0.10;22.70;;;;;;4924040;29;20995;-70
2022/12/17 13:52:01;;;;;;;41.90;25.43;;;0.00;23.00;;;;;;4932184;29;20495;-70
2022/12/17 13:54:27;;;;;;;51.57;29.10;;;0.00;23.50;;;;;;4917145;29;20463;-65
2022/12/17 13:57:06;;;;;;;44.27;27.07;;;-0.10;23.80;;;;;;4918134;28;20479;-61
2022/12/17 13:59:34;;;;;;;50.33;29.83;;;-0.10;24.00;;;;;;4926482;29;20563;-69
2022/12/17 14:02:04;;;;;;;44.83;25.83;;;-0.20;24.20;;;;;;4923318;29;20579;-69
2022/12/17 14:04:32;;;;;;;41.80;26.27;;;-0.30;24.40;;;;;;4925679;29;20547;-69
2022/12/17 14:07:04;;;;;;;46.73;28.10;;;-0.30;24.70;;;;;;4926223;29;20470;-68
2022/12/17 14:09:35;;;;;;;44.73;25.90;;;-0.40;24.80;;;;;;4924102;29;20830;-69
2022/12/17 14:12:21;;;;;;;45.40;27.07;;;-0.50;25.00;;;;;;4923146;29;20487;-68
2022/12/17 14:14:50;;;;;;;43.40;26.10;;;-0.50;25.20;;;;;;4923404;29;20456;-71
2022/12/17 14:17:19;;;;;;;46.10;26.90;;;-0.50;26.00;;;;;;4924150;29;21348;-70
2022/12/17 14:19:52;;;;;;;44.30;27.50;;;-0.50;26.30;;;;;;4925401;29;20509;-71
2022/12/17 14:22:25;;;;;;;50.27;29.20;;;-0.60;26.10;;;;;;4925389;29;20497;-71
2022/12/17 14:24:52;;;;;;;47.57;29.33;;;-0.60;26.00;;;;;;4920560;29;20463;-77
2022/12/17 14:27:25;;;;;;;51.77;28.87;;;-0.70;26.20;;;;;;4924702;29;20470;-75
2022/12/17 14:29:53;;;;;;;52.63;29.37;;;-0.80;26.10;;;;;;4922934;29;21038;-70
2022/12/17 14:32:25;;;;;;;55.53;28.37;;;-0.90;26.00;;;;;;4921938;29;20480;-75
2022/12/17 14:34:53;;;;;;;43.40;27.40;;;-0.90;26.20;;;;;;4921387;29;20483;-69
2022/12/17 14:37:23;;;;;;;52.47;30.93;;;-1.00;26.20;;;;;;4922654;29;20494;-67
2022/12/17 14:39:50;;;;;;;48.17;29.20;;;-1.10;26.40;;;;;;4919430;29;20470;-67
2022/12/17 14:42:29;;;;;;;48.10;27.73;;;-1.10;26.50;;;;;;4925525;29;20507;-67
2022/12/17 14:44:58;;;;;;;51.30;30.03;;;-1.20;26.50;;;;;;4927435;29;20460;-67
2022/12/17 14:47:27;;;;;;;53.20;30.70;;;-1.30;26.60;;;;;;4931731;29;20477;-67
2022/12/17 14:49:58;;;;;;;53.17;31.50;;;-1.40;26.60;;;;;;4928907;29;20530;-81
2022/12/17 14:52:35;;;;;;;60.70;33.70;;;-1.50;26.70;;;;;;4922425;29;20488;-68
2022/12/17 14:55:17;;;;;;;52.27;30.13;;;-1.60;26.80;;;;;;4945068;23;20497;-76
2022/12/17 14:57:44;;;;;;;58.80;29.70;;;-1.70;27.00;;;;;;4964122;28;20469;-79
2022/12/17 15:00:13;;;;;;;52.40;31.90;;;-1.90;27.30;;;;;;4958946;28;20493;-75
2022/12/17 15:02:42;;;;;;;50.93;29.40;;;-2.00;27.40;;;;;;4957355;28;20473;-69
2022/12/17 15:05:14;;;;;;;61.00;32.70;;;-2.10;27.70;;;;;;4960723;28;20496;-72
2022/12/17 15:07:45;;;;;;;62.40;38.03;;;-2.20;27.90;;;;;;4964576;28;20462;-72
2022/12/17 15:10:14;;;;;;;67.63;38.63;;;-2.30;28.10;;;;;;4971556;28;20461;-74
2022/12/17 15:12:42;;;;;;;56.23;32.57;;;-2.40;28.30;;;;;;4969950;28;20481;-68
2022/12/17 15:15:12;;;;;;;56.60;32.73;;;-2.50;28.50;;;;;;4969345;28;20485;-72
2022/12/17 15:17:39;;;;;;;77.40;33.50;;;-2.60;28.70;;;;;;4966935;28;20466;-71
2022/12/17 15:20:08;;;;;;;63.10;33.80;;;-2.60;29.00;;;;;;4968108;28;20977;-63
2022/12/17 15:22:38;;;;;;;47.97;29.13;;;-2.70;29.10;;;;;;4965713;28;20453;-70
2022/12/17 15:25:05;;;;;;;59.17;32.10;;;-2.80;29.30;;;;;;4967771;28;21011;-69
2022/12/17 15:27:32;;;;;;;55.83;32.43;;;-2.90;29.80;;;;;;4963986;28;20476;-71
2022/12/17 15:29:59;;;;;;;57.40;32.47;;;-3.00;29.80;;;;;;4967343;28;20469;-71
2022/12/17 15:32:25;;;;;;;61.90;32.30;;;-3.10;30.00;;;;;;4966875;28;20481;-71
2022/12/17 15:34:52;;;;;;;51.47;30.97;;;-3.10;30.10;;;;;;4968941;28;21002;-76
2022/12/17 15:37:19;;;;;;;53.97;33.03;;;-3.20;30.20;;;;;;4966535;28;20468;-71
2022/12/17 15:39:47;;;;;;;52.90;31.53;;;-3.20;30.30;;;;;;4963031;28;20958;-71
2022/12/17 15:44:58;;;;;;;55.30;32.40;;;-3.40;30.50;;;;;;4963183;28;20476;-71
2022/12/17 15:47:25;;;;;;;58.13;31.70;;;-3.40;30.90;;;;;;4968883;28;20472;-72
2022/12/17 15:49:51;;;;;;;56.60;32.10;;;-3.50;30.80;;;;;;4970625;28;20458;-65
2022/12/17 15:52:18;;;;;;;66.10;34.27;;;-3.50;30.90;;;;;;4968026;28;20839;-67
2022/12/17 15:54:48;;;;;;;57.03;32.73;;;-3.60;30.90;;;;;;4965715;28;20496;-67
2022/12/17 15:57:15;;;;;;;65.60;38.83;;;-3.70;31.10;;;;;;4963068;28;20462;-68
2022/12/17 15:59:42;;;;;;;64.73;34.57;;;-3.70;31.80;;;;;;4970481;28;20838;-67
2022/12/17 16:02:10;;;;;;;66.57;32.50;;;-3.70;31.30;;;;;;4970316;28;20547;-67
2022/12/17 16:04:36;;;;;;;76.53;35.30;;;-3.70;31.20;;;;;;4971432;28;20473;-64
2022/12/17 16:07:03;;;;;;;64.87;34.13;;;-3.70;31.00;;;;;;4966141;28;20473;-66
2022/12/17 16:09:30;;;;;;;60.00;33.07;;;-3.80;30.90;;;;;;4961800;28;20473;-70
2022/12/17 16:11:58;;;;;;;67.67;36.17;;;-3.80;31.00;;;;;;4963623;28;20466;-70
2022/12/17 16:14:26;;;;;;;65.50;35.37;;;-3.90;31.00;;;;;;4965523;28;20494;-70
2022/12/17 16:16:52;;;;;;;61.17;32.57;;;-3.90;31.10;;;;;;4965536;28;20472;-68
2022/12/17 16:19:22;;;;;;;67.77;33.97;;;-3.90;31.30;;;;;;4963306;28;20985;-73
2022/12/17 16:21:49;;;;;;;61.03;32.80;;;-3.90;31.50;;;;;;4963612;28;20469;-73
2022/12/17 16:24:16;;;;;;;56.73;32.17;;;-4.00;31.60;;;;;;4964274;28;20482;-67
2022/12/17 16:26:43;;;;;;;63.67;36.20;;;-4.00;31.60;;;;;;4967277;28;20969;-72
2022/12/17 16:29:13;;;;;;;69.07;37.90;;;-4.10;31.60;;;;;;4965672;28;20468;-74
2022/12/17 16:31:40;;;;;;;69.47;36.87;;;-4.10;31.70;;;;;;4965398;28;20477;-71
2022/12/17 16:34:08;;;;;;;73.43;39.50;;;-4.10;31.90;;;;;;4965460;28;20489;-70
2022/12/17 16:36:35;;;;;;;70.70;41.10;;;-4.20;31.90;;;;;;4963901;28;20465;-71
2022/12/17 16:39:02;;;;;;;73.13;40.80;;;-4.30;32.10;;;;;;4961471;28;20466;-71
2022/12/17 16:41:29;;;;;;;76.27;40.80;;;-4.30;32.10;;;;;;4961382;28;20460;-71
2022/12/17 16:43:55;;;;;;;74.20;39.80;;;-4.30;32.20;;;;;;4964112;28;20496;-70
2022/12/17 16:46:29;;;;;;;68.03;38.10;;;-4.40;32.20;;;;;;4958271;28;20493;-69
2022/12/17 16:48:57;;;;;;;73.27;38.53;;;-4.40;32.30;;;;;;4964145;28;20599;-69
2022/12/17 16:51:27;;;;;;;68.07;38.10;;;-4.40;32.20;;;;;;4965088;28;20746;-65
2022/12/17 16:53:54;;;;;;;65.43;36.60;;;-4.50;32.30;;;;;;4964379;28;20489;-70
2022/12/17 16:56:22;;;;;;;73.07;38.90;;;-4.50;32.30;;;;;;4959700;28;20466;-70
2022/12/17 16:58:49;;;;;;;74.40;37.60;;;-4.50;32.30;;;;;;4963939;28;20465;-68
2022/12/17 17:01:18;;;;;;;72.20;39.50;;;-4.60;32.20;;;;;;4967115;28;20580;-68
2022/12/17 17:03:47;;;;;;;72.63;36.80;;;-4.60;32.30;;;;;;4959221;28;20489;-71
2022/12/17 17:06:14;;;;;;;79.43;40.50;;;-4.60;32.30;;;;;;4963343;28;20470;-71
2022/12/17 17:08:40;;;;;;;81.63;43.03;;;-4.60;32.30;;;;;;4963610;28;20477;-71
2022/12/17 17:11:09;;;;;;;75.33;41.60;;;-4.60;32.40;;;;;;4966922;28;20473;-71
2022/12/17 17:13:36;;;;;;;81.77;42.30;;;-4.70;32.50;;;;;;4966445;28;20482;-71
2022/12/17 17:16:03;;;;;;;86.33;45.97;;;-4.70;32.60;;;;;;4964434;28;20461;-71
2022/12/17 17:18:30;;;;;;;63.07;36.73;;;-4.70;32.60;;;;;;4964962;28;20467;-71
2022/12/17 17:21:13;;;;;;;88.43;44.13;;;-4.70;32.80;;;;;;4963428;28;20473;-71
2022/12/17 17:23:40;;;;;;;74.77;38.80;;;-4.70;32.90;;;;;;4964275;28;20489;-71
2022/12/17 17:26:08;;;;;;;73.17;39.37;;;-4.50;33.00;;;;;;4964052;28;20978;-71
2022/12/17 17:28:34;;;;;;;79.40;38.40;;;-4.70;33.20;;;;;;4963066;28;20462;-71
2022/12/17 17:31:02;;;;;;;95.33;42.70;;;-4.70;33.20;;;;;;4964386;28;20470;-71
2022/12/17 17:33:30;;;;;;;110.00;48.50;;;-4.60;33.20;;;;;;4968482;28;20496;-71
2022/12/17 17:36:04;;;;;;;88.53;42.53;;;-4.60;33.10;;;;;;4966039;28;20466;-71
2022/12/17 17:38:32;;;;;;;84.67;38.97;;;-4.60;33.20;;;;;;4963769;28;20528;-71
2022/12/17 17:40:59;;;;;;;70.77;35.80;;;-4.60;33.20;;;;;;4964651;28;20468;-71
2022/12/17 17:43:26;;;;;;;63.30;33.50;;;-4.50;33.30;;;;;;4965314;28;20469;-71
2022/12/17 17:45:54;;;;;;;71.97;39.00;;;-4.50;33.20;;;;;;4966230;28;20462;-71
2022/12/17 17:48:21;;;;;;;65.37;36.83;;;-4.40;33.20;;;;;;4959382;28;21151;-71
2022/12/17 17:50:58;;;;;;;77.90;37.70;;;-4.40;33.10;;;;;;4964917;28;21030;-71
2022/12/17 17:53:25;;;;;;;75.87;39.20;;;-4.40;33.00;;;;;;4965036;28;20893;-71
2022/12/17 17:55:53;;;;;;;67.13;36.60;;;-4.30;32.70;;;;;;4963933;28;20520;-71
2022/12/17 17:58:19;;;;;;;65.50;33.93;;;-4.30;32.60;;;;;;4963006;28;20473;-71
2022/12/17 18:00:47;;;;;;;62.27;33.87;;;-4.20;32.60;;;;;;4965187;28;20469;-71
2022/12/17 18:03:13;;;;;;;70.77;31.20;;;-4.30;32.80;;;;;;4966711;28;20833;-71
2022/12/17 18:05:41;;;;;;;76.37;33.73;;;-4.20;33.60;;;;;;4964874;28;20485;-71
2022/12/17 18:08:08;;;;;;;66.23;32.77;;;-3.90;34.40;;;;;;4965693;28;20581;-70
2022/12/17 18:10:35;;;;;;;80.27;37.40;;;-4.20;34.50;;;;;;4959762;28;20474;-71
2022/12/17 18:15:48;;;;;;;70.93;39.20;;;-4.20;35.00;;;;;;4963118;28;20500;-71
2022/12/17 18:18:15;;;;;;;91.60;43.77;;;-4.20;35.00;;;;;;4965933;28;20458;-71
2022/12/17 18:20:41;;;;;;;79.43;39.07;;;-4.10;35.00;;;;;;4963724;28;20480;-71
2022/12/17 18:23:08;;;;;;;74.40;35.37;;;-4.10;35.00;;;;;;4965492;28;20470;-71
2022/12/17 18:25:35;;;;;;;70.93;35.63;;;-4.10;35.00;;;;;;4968879;28;20609;-71
2022/12/17 18:28:03;;;;;;;76.90;37.47;;;-4.00;35.00;;;;;;4963033;28;20461;-71
2022/12/17 18:30:30;;;;;;;87.93;41.80;;;-4.00;34.90;;;;;;4963910;28;22016;-71
2022/12/17 18:32:57;;;;;;;89.00;37.00;;;-3.90;35.00;;;;;;4965162;28;20472;-71
2022/12/17 18:35:24;;;;;;;79.87;37.10;;;-3.90;35.00;;;;;;4959983;28;20499;-71
2022/12/17 18:37:51;;;;;;;72.27;36.70;;;-3.90;35.00;;;;;;4963321;28;21192;-71
2022/12/17 18:40:18;;;;;;;93.90;36.20;;;-3.80;35.00;;;;;;4964957;28;20466;-71
2022/12/17 18:45:30;;;;;;;98.33;39.40;;;-3.80;35.20;;;;;;4960529;28;20988;-72
2022/12/17 18:47:57;;;;;;;90.60;38.20;;;-3.80;35.20;;;;;;4958440;28;20469;-71
2022/12/17 18:50:23;;;;;;;99.80;40.47;;;-3.80;35.40;;;;;;4962768;28;20461;-71
2022/12/17 18:52:50;;;;;;;85.40;38.47;;;-3.80;35.50;;;;;;4960032;28;20571;-71
2022/12/17 18:55:17;;;;;;;86.83;37.90;;;-3.80;35.70;;;;;;4964448;28;20511;-71
2022/12/17 18:57:44;;;;;;;89.87;38.23;;;-3.80;35.60;;;;;;4965769;28;20470;-71
2022/12/17 19:00:12;;;;;;;78.17;39.57;;;-3.80;35.70;;;;;;4968285;28;20533;-71
2022/12/17 19:02:40;;;;;;;110.27;45.73;;;-3.80;35.70;;;;;;4961678;28;21095;-70
2022/12/17 19:05:07;;;;;;;125.50;49.67;;;-3.70;35.80;;;;;;4963592;28;20474;-71
2022/12/17 19:07:34;;;;;;;98.87;47.17;;;-3.70;35.80;;;;;;4963119;28;20465;-70
2022/12/17 19:10:01;;;;;;;94.13;43.47;;;-3.70;35.80;;;;;;4963380;28;20461;-71
2022/12/17 19:12:28;;;;;;;84.77;40.63;;;-3.70;35.80;;;;;;4964707;28;20476;-71
2022/12/17 19:14:54;;;;;;;88.27;41.83;;;-3.70;35.90;;;;;;4961817;28;20512;-71
2022/12/17 19:17:21;;;;;;;78.67;39.90;;;-3.60;36.00;;;;;;4965091;28;20465;-71
2022/12/17 19:19:49;;;;;;;89.20;39.57;;;-3.60;35.90;;;;;;4961272;28;20465;-71
2022/12/17 19:22:16;;;;;;;83.03;37.40;;;-3.60;35.90;;;;;;4963984;28;20468;-71
2022/12/17 19:24:43;;;;;;;78.50;39.73;;;-3.60;36.00;;;;;;4964981;28;20481;-71
2022/12/17 19:27:09;;;;;;;93.63;41.53;;;-3.60;36.00;;;;;;4964507;28;20865;-71
2022/12/17 19:29:36;;;;;;;98.07;42.20;;;-3.60;36.00;;;;;;4964068;28;21035;-71
2022/12/17 19:32:03;;;;;;;93.37;42.17;;;-3.60;36.70;;;;;;4960492;28;20481;-70
2022/12/17 19:34:31;;;;;;;80.57;40.23;;;-3.60;36.10;;;;;;4954519;28;20481;-71
2022/12/17 19:36:59;;;;;;;79.40;38.10;;;-3.60;36.00;;;;;;4966296;28;20473;-71
2022/12/17 19:39:26;;;;;;;80.07;41.37;;;-3.50;36.10;;;;;;4959053;28;20468;-70
2022/12/17 19:41:53;;;;;;;80.30;39.07;;;-3.50;36.10;;;;;;4962700;28;20461;-70
2022/12/17 19:44:20;;;;;;;75.43;37.80;;;-3.50;35.90;;;;;;4963651;28;20485;-71
2022/12/17 19:46:47;;;;;;;75.53;39.17;;;-3.50;35.90;;;;;;4965529;28;20476;-70
2022/12/17 19:49:15;;;;;;;67.97;34.40;;;-3.50;35.80;;;;;;4962766;28;20875;-71
2022/12/17 19:51:42;;;;;;;73.43;39.97;;;-3.40;35.70;;;;;;4963462;28;20981;-71
2022/12/17 19:54:12;;;;;;;78.80;36.00;;;-3.40;35.60;;;;;;4963574;28;21008;-71
2022/12/17 19:56:39;;;;;;;69.47;38.03;;;-3.40;35.40;;;;;;4966524;28;20494;-71
2022/12/17 19:59:07;;;;;;;73.77;37.53;;;-3.30;35.30;;;;;;4962787;28;20473;-71
2022/12/17 20:01:36;;;;;;;74.40;36.83;;;-3.40;35.20;;;;;;4964631;28;20492;-71
2022/12/17 20:04:04;;;;;;;70.90;38.27;;;-3.40;35.10;;;;;;4965585;28;20568;-71
2022/12/17 20:06:32;;;;;;;73.37;37.40;;;-3.30;35.00;;;;;;4971333;28;20465;-71
2022/12/17 20:08:59;;;;;;;65.63;35.33;;;-3.30;34.90;;;;;;4966234;28;20468;-72
2022/12/17 20:11:34;;;;;;;62.63;35.50;;;-3.30;34.50;;;;;;4963143;28;20488;-71
2022/12/17 20:14:02;;;;;;;69.03;35.67;;;-3.30;34.40;;;;;;4963525;28;20520;-71
2022/12/17 20:16:31;;;;;;;67.23;36.50;;;-3.30;34.20;;;;;;4966854;28;20457;-71
2022/12/17 20:18:59;;;;;;;58.63;35.63;;;-3.30;34.00;;;;;;4966157;28;20462;-71
2022/12/17 20:21:26;;;;;;;64.40;37.07;;;-3.30;33.80;;;;;;4967166;28;20465;-71
2022/12/17 20:23:53;;;;;;;71.67;39.23;;;-3.30;33.70;;;;;;4968650;28;20493;-71
2022/12/17 20:26:20;;;;;;;71.20;36.87;;;-3.30;33.50;;;;;;4965728;28;20994;-72
2022/12/17 20:28:48;;;;;;;61.20;35.97;;;-3.30;33.20;;;;;;4965449;28;20473;-71
2022/12/17 20:31:15;;;;;;;67.60;36.70;;;-3.30;33.00;;;;;;4966067;28;20872;-71
2022/12/17 20:33:42;;;;;;;81.50;39.40;;;-3.30;32.90;;;;;;4963190;28;21025;-71
2022/12/17 20:36:11;;;;;;;76.40;37.07;;;-3.30;32.60;;;;;;4966757;28;20461;-71
2022/12/17 20:38:38;;;;;;;79.40;37.80;;;-3.40;32.50;;;;;;4961641;28;20472;-71
2022/12/17 20:41:09;;;;;;;66.90;35.90;;;-3.40;32.50;;;;;;4968703;28;20471;-70
2022/12/17 20:43:36;;;;;;;71.50;35.50;;;-3.40;32.50;;;;;;4964562;28;20507;-71
2022/12/17 20:46:04;;;;;;;69.67;37.93;;;-3.40;32.50;;;;;;4961408;28;20461;-71
2022/12/17 20:48:32;;;;;;;76.70;39.30;;;-3.40;32.50;;;;;;4967252;28;20462;-71
2022/12/17 20:50:59;;;;;;;87.68;44.25;;;-3.50;32.50;;;;;;4960609;28;20458;-71
2022/12/17 20:53:25;;;;;;;73.27;38.30;;;-3.50;32.80;;;;;;4968594;28;20211;-70
2022/12/17 20:56:00;;;;;;;85.07;39.67;;;-3.40;32.50;;;;;;4959127;28;21121;-70
2022/12/17 20:58:27;;;;;;;76.17;39.17;;;-3.40;32.30;;;;;;4964437;28;20461;-70
2022/12/17 21:01:04;;;;;;;88.00;40.87;;;-3.40;32.10;;;;;;4963371;28;20858;-71
2022/12/17 21:03:31;;;;;;;81.13;37.60;;;-3.50;32.20;;;;;;4962516;28;20457;-70
2022/12/17 21:06:05;;;;;;;96.93;39.97;;;-3.50;32.20;;;;;;4964157;28;20458;-70
2022/12/17 21:08:33;;;;;;;84.37;42.47;;;-3.50;32.40;;;;;;4961207;28;20559;-70
2022/12/17 21:10:59;;;;;;;84.70;37.67;;;-3.50;32.50;;;;;;4963625;28;20568;-70
2022/12/17 21:13:29;;;;;;;78.37;37.83;;;-3.40;32.60;;;;;;4965348;28;20458;-70
2022/12/17 21:15:56;;;;;;;79.20;40.47;;;-3.40;32.70;;;;;;4965512;28;20477;-70
2022/12/17 21:18:25;;;;;;;81.53;38.17;;;-3.40;32.80;;;;;;4967752;28;20460;-71
2022/12/17 21:20:57;;;;;;;81.87;41.00;;;-3.50;32.90;;;;;;4961030;28;20824;-71
2022/12/17 21:23:24;;;;;;;80.20;40.80;;;-3.50;33.10;;;;;;4964639;28;20474;-71
2022/12/17 21:25:58;;;;;;;90.60;41.07;;;-3.50;33.10;;;;;;4964529;28;20549;-71
2022/12/17 21:28:24;;;;;;;93.93;42.87;;;-3.50;33.20;;;;;;4958650;28;20525;-71
2022/12/17 21:30:51;;;;;;;88.20;40.27;;;-3.50;33.20;;;;;;4960976;28;20481;-71
2022/12/17 21:33:18;;;;;;;81.87;37.60;;;-3.40;33.90;;;;;;4963717;28;20462;-70
2022/12/17 21:35:47;;;;;;;91.03;41.30;;;-3.40;33.40;;;;;;4961386;28;20490;-71
2022/12/17 21:38:14;;;;;;;97.37;41.70;;;-3.50;33.40;;;;;;4961911;28;20489;-71
2022/12/17 21:40:41;;;;;;;91.70;38.20;;;-3.50;33.50;;;;;;4964899;28;20462;-71
2022/12/17 21:43:09;;;;;;;90.57;40.10;;;-3.50;33.50;;;;;;4963421;28;21136;-70
2022/12/17 21:45:38;;;;;;;102.33;42.23;;;-3.50;33.70;;;;;;4965717;28;20478;-70
2022/12/17 21:48:06;;;;;;;86.90;39.30;;;-3.40;33.70;;;;;;4961339;28;20950;-70
2022/12/17 21:50:33;;;;;;;81.90;38.77;;;-3.40;33.70;;;;;;4963398;28;20839;-70
2022/12/17 21:53:01;;;;;;;86.90;37.57;;;-3.40;33.70;;;;;;4964425;28;20470;-70
2022/12/17 21:55:28;;;;;;;90.30;39.43;;;-3.50;33.60;;;;;;4953175;28;21020;-69
2022/12/17 21:57:57;;;;;;;88.40;42.23;;;-3.50;33.70;;;;;;4955242;28;20497;-70
2022/12/17 22:00:24;;;;;;;88.00;40.07;;;-3.40;33.70;;;;;;4960646;28;20970;-70
2022/12/17 22:02:51;;;;;;;94.80;39.90;;;-3.40;33.80;;;;;;4960871;28;20841;-71
2022/12/17 22:05:18;;;;;;;80.20;37.10;;;-3.40;33.70;;;;;;4963633;28;20843;-70
2022/12/17 22:07:45;;;;;;;83.23;40.80;;;-3.50;33.70;;;;;;4965555;28;20973;-70
2022/12/17 22:10:13;;;;;;;93.47;41.37;;;-3.50;33.70;;;;;;4963942;28;20473;-70
2022/12/17 22:15:26;;;;;;;100.33;37.77;;;-3.50;33.70;;;;;;4939164;28;20465;-70
2022/12/17 22:17:55;;;;;;;81.20;37.57;;;-3.50;33.70;;;;;;4966758;28;20477;-73
2022/12/17 22:20:22;;;;;;;81.83;39.47;;;-3.50;33.70;;;;;;4965535;28;20834;-71
2022/12/17 22:22:49;;;;;;;83.23;38.93;;;-3.50;33.70;;;;;;4959234;28;20832;-72
2022/12/17 22:25:17;;;;;;;85.70;37.77;;;-3.50;33.70;;;;;;4963827;28;20858;-72
2022/12/17 22:27:44;;;;;;;93.07;41.70;;;-3.50;33.70;;;;;;4960357;28;20458;-71
2022/12/17 22:32:59;;;;;;;84.10;37.73;;;-3.50;33.70;;;;;;4960052;28;21021;-71
2022/12/17 22:35:26;;;;;;;92.50;40.00;;;-3.50;33.60;;;;;;4963705;28;20508;-72
2022/12/17 22:37:53;;;;;;;84.67;40.50;;;-3.10;33.60;;;;;;4962447;28;20477;-72
2022/12/17 22:40:22;;;;;;;81.23;39.70;;;-3.40;33.40;;;;;;4957812;28;20471;-72
2022/12/17 22:45:33;;;;;;;88.03;37.40;;;-3.40;33.40;;;;;;4964529;28;20836;-71
2022/12/17 22:48:02;;;;;;;98.47;41.30;;;-3.40;33.30;;;;;;4964683;28;20474;-71
2022/12/17 22:50:29;;;;;;;84.23;38.10;;;-3.40;33.30;;;;;;4958561;28;20465;-71
2022/12/17 22:52:56;;;;;;;84.23;40.13;;;-3.40;33.30;;;;;;4960739;28;20461;-70
2022/12/17 22:55:24;;;;;;;83.53;36.03;;;-3.40;33.30;;;;;;4957236;28;21267;-71
2022/12/17 22:57:51;;;;;;;92.17;44.43;;;-3.40;33.30;;;;;;4958765;28;20466;-71
2022/12/17 23:00:22;;;;;;;87.67;41.13;;;-3.50;33.30;;;;;;4963295;28;21202;-72
2022/12/17 23:02:52;;;;;;;93.37;41.63;;;-3.50;33.30;;;;;;4959571;28;20462;-72
2022/12/17 23:05:18;;;;;;;85.70;39.87;;;-3.50;33.30;;;;;;4960059;28;20485;-72
2022/12/17 23:07:45;;;;;;;84.40;40.00;;;-3.40;33.30;;;;;;4963597;28;20470;-71
2022/12/17 23:10:12;;;;;;;84.73;38.13;;;-3.40;33.30;;;;;;4964318;28;20466;-71
2022/12/17 23:12:53;;;;;;;79.37;35.30;;;-3.40;33.30;;;;;;4959300;28;20520;-71
2022/12/17 23:15:23;;;;;;;90.00;36.80;;;-3.40;33.20;;;;;;4963173;28;20541;-71
2022/12/17 23:17:51;;;;;;;80.60;38.10;;;-3.40;33.30;;;;;;4968095;28;20462;-72
2022/12/17 23:20:19;;;;;;;86.07;37.77;;;-3.50;33.40;;;;;;4959742;28;20469;-71
2022/12/17 23:22:46;;;;;;;93.70;36.87;;;-3.50;33.40;;;;;;4962327;28;20466;-71
2022/12/17 23:25:14;;;;;;;90.63;37.97;;;-3.50;33.40;;;;;;4960147;28;20512;-71
2022/12/17 23:27:42;;;;;;;90.67;41.03;;;-3.50;33.50;;;;;;4959209;28;20560;-71
2022/12/17 23:30:10;;;;;;;85.80;36.50;;;-3.50;33.50;;;;;;4968025;28;20466;-71
2022/12/17 23:32:37;;;;;;;82.30;36.50;;;-3.50;33.50;;;;;;4965604;28;20474;-71
2022/12/17 23:35:05;;;;;;;80.43;35.43;;;-3.40;33.50;;;;;;4965201;28;20488;-72
2022/12/17 23:37:32;;;;;;;79.87;39.47;;;-3.50;33.60;;;;;;4966631;28;21080;-71
2022/12/17 23:39:59;;;;;;;79.40;35.43;;;-3.50;33.70;;;;;;4966499;28;20962;-71
2022/12/17 23:42:26;;;;;;;87.00;38.73;;;-3.50;33.60;;;;;;4965758;28;20917;-71
2022/12/17 23:44:54;;;;;;;78.70;35.97;;;-3.40;33.70;;;;;;4967597;28;20488;-71
2022/12/17 23:47:21;;;;;;;89.80;38.53;;;-3.40;33.60;;;;;;4972646;28;21060;-71
2022/12/17 23:49:47;;;;;;;87.20;36.87;;;-3.40;33.60;;;;;;4968727;28;20544;-71
2022/12/17 23:52:14;;;;;;;79.87;37.23;;;-3.40;33.70;;;;;;4968851;28;20555;-71
2022/12/17 23:54:41;;;;;;;83.73;34.63;;;-3.40;33.70;;;;;;4967673;28;20488;-71
2022/12/17 23:57:08;;;;;;;74.97;33.67;;;-3.40;33.70;;;;;;4964287;28;20458;-71
2022/12/17 23:59:35;;;;;;;78.20;35.87;;;-3.40;33.60;;;;;;4966350;28;20462;-71
